AirNav   Pilot Hours Calculator
 
 1203 users online  

MU05 Arch Heliport
St Louis, Missouri, USA

GOING TO ST LOUIS?


FAA INFORMATION EFFECTIVE 31 JANUARY 2019

Location

FAA Identifier: MU05
Lat/Long: 38-37-30.8800N / 090-12-47.7600W
38-37.514667N / 090-12.796000W
38.6252444 / -90.2132667
(estimated)
Elevation: 500 ft. / 152 m (estimated)
Variation: 01E (1990)
Time zone: UTC -6 (UTC -5 during Daylight Saving Time)
Zip code: 63104

Heliport Operations

Heliport use: Private use, MEDICAL USE.
Activation date: 12/1993
Control tower: no
ARTCC: KANSAS CITY CENTER
FSS: SAINT LOUIS FLIGHT SERVICE STATION
Attendance: CONTINUOUS
Wind indicator: yes
Segmented circle: no

Heliport Communications

WX ASOS at CPS (4 nm SE): PHONE 618-332-0001
WX ASOS at STL (10 nm NW): PHONE 314-890-4790
WX AWOS-3 at ALN (18 nm NE): 128.0 (618-259-7231)

Nearby radio navigation aids

VOR radial/distance  VOR name  Freq  Var
CSXr138/10.3CARDINAL VOR/DME116.4500E
TOYr240/15.4TROY VORTAC116.0004E
STLr137/18.9ST LOUIS VORTAC117.4001E
FTZr092/35.8FORISTELL VORTAC110.8005E

 
NDB name  Hdg/Dist  Freq  Var  ID
ACORE311/9.635000ECP -.-. .--.
ZUMAY164/10.240401WST ... -
CIVIC MEMORIAL206/17.626301WCVM -.-. ...- --

Heliport Services

Runway Information

Helipad H1

Dimensions: 30 x 30 ft. / 9 x 9 m
Surface: concrete
Latitude: 38-37.514667N
Longitude: 090-12.796000W
Elevation: 500.0 ft.
Traffic pattern: leftleft

Heliport Ownership and Management from official FAA records

Ownership: Privately-owned
Owner: ARCH
2207 SCOTT AVE
ST LOUIS, MO 63103
Phone 314-640-3354
Manager: ROBERT GROVES
2207 SCOTT AVE
ST LOUIS, MO 63103
Phone (314) 486-2783

Additional Remarks

A52-H1 45' BLDG 250' SW.
FOR CD CTC ST LOUIS APCH AT 314-890-1018.

Instrument Procedures

There are no published instrument procedures at MU05.

Some nearby airports with instrument procedures:

KCPS - St Louis Downtown Airport (4 nm SE)
KSTL - St Louis Lambert International Airport (10 nm NW)
1H0 - Creve Coeur Airport (15 nm NW)
KALN - St Louis Regional Airport (18 nm NE)
KBLV - Scott Air Force Base/MidAmerica Airport (18 nm E)
 
Loc | Ops | Rwys | IFR | FBO | Links
Com | Nav | Svcs | Stats | Notes

Kansas City Aviation Department
 
Area around MU05 (Arch Heliport)
 
Road maps at: MapQuest Bing Google
 
Aerial photo
No photo
 
Sectional chart

 
Airport distance calculator
Flying to Arch Heliport? Find the distance to fly.

From to MU05

Sunrise and sunset
Times for 22-Feb-2019
 Local
(UTC-6)
 Zulu
(UTC)
Morning civil twilight06:1712:17
Sunrise06:4412:44
Sunset17:4523:45
Evening civil twilight18:1200:12

Current date and time
Zulu (UTC)  22-Feb-2019 21:45:38
Local (UTC-6)  22-Feb-2019 15:45:38
 
METAR
KCPS 
5nm SE 
222053Z 09009KT 10SM FEW049 BKN055 OVC075 05/M02 A3024 RMK AO2 SLP244 T00501017 56028
KSTL 
10nm NW 
222051Z 08010KT 10SM FEW044 OVC060 06/M03 A3025 RMK AO2 SLP250 T00561028 56025
KALN 
18nm NE 
222047Z 10010KT 10SM OVC050 05/M02 A3026
KBLV 
19nm E 
222110Z AUTO 06008KT 10SM -RA OVC050 04/M02 A3023 RMK AO2 RAB10 SLP244 $
TAF
KCPS 
5nm SE 
221738Z 2218/2318 08008KT P6SM VCSH OVC060 FM230100 10008KT P6SM OVC025 FM230700 11007KT P6SM OVC015 FM231200 11007KT 3SM -SHRA OVC007 FM231500 13005KT P6SM OVC006
KSTL 
10nm NW 
221738Z 2218/2324 09007KT P6SM VCSH OVC060 FM230100 10008KT P6SM OVC025 FM230700 11007KT P6SM OVC015 FM231200 11007KT 3SM -SHRA OVC007 FM231500 13005KT P6SM OVC006 FM231900 13007KT 6SM -SHRA VCTS OVC008CB
KBLV 
19nm E 
221733Z 2217/2322 07012KT 9999 OVC060 QNH3025INS BECMG 2223/2224 10006KT 9000 -SHRA SCT015 OVC025 QNH3022INS BECMG 2302/2303 11010KT 9999 NSW BKN015 QNH3004INS BECMG 2310/2311 12006KT 8000 -SHRA OVC006 QNH2986INS BECMG 2317/2318 14006KT 8000 -SHRA OVC004 510043 QNH2954INS TX12/2316Z TN02/2217Z
NOTAMs
Click for the latest NOTAMs
NOTAMs are issued by the DoD/FAA and will open in a separate window not controlled by AirNav.

 

 
 

Would you like to see your business listed on this page?

 If your business provides an interesting product or service to pilots, flight crews, aircraft, or users of the Arch Heliport, you should consider listing it here.  To start the listing process, click on the button below
 
Add a business
 

Other Pages about Arch Heliport

members.aol.com/...
 
Update a link
 
Copyright © AirNav, LLC. All rights reserved. Privacy Policy  Contact